Time;durP1;ratioP1;P1;durP2;ratioP2;P2;SDS_P1;SDS_P2;PMS_P1;PMS_P2;Temp;Humidity;BMP_temperature;BMP_pressure;BME280_temperature;BME280_humidity;BME280_pressure;Samples;Min_cycle;Max_cycle;Signal;HPM_P1;HPM_P2
2022/11/07 00:01:17;;;;;;;26.92;2.70;;;11.70;96.70;;;;;;5099079;27;20276;-73
2022/11/07 00:03:43;;;;;;;25.38;3.42;;;11.80;97.10;;;;;;5117136;27;20426;-73
2022/11/07 00:06:10;;;;;;;29.20;3.28;;;11.80;97.40;;;;;;5119017;27;20027;-73
2022/11/07 00:08:36;;;;;;;21.83;2.15;;;11.90;97.10;;;;;;5117325;27;20026;-73
2022/11/07 00:11:02;;;;;;;30.92;3.08;;;12.00;97.50;;;;;;5117207;27;20485;-73
2022/11/07 00:13:28;;;;;;;30.98;3.28;;;12.00;97.50;;;;;;5118088;27;20442;-73
2022/11/07 00:15:58;;;;;;;29.73;3.03;;;12.10;97.50;;;;;;5110548;27;20051;-73
2022/11/07 00:18:24;;;;;;;27.00;3.10;;;12.00;97.50;;;;;;5105837;27;20027;-73
2022/11/07 00:20:49;;;;;;;37.22;3.22;;;12.00;97.50;;;;;;5117995;27;20035;-73
2022/11/07 00:23:15;;;;;;;22.13;2.72;;;12.00;97.20;;;;;;5117413;27;20079;-73
2022/11/07 00:25:41;;;;;;;23.42;3.03;;;12.00;97.30;;;;;;5114151;27;20031;-73
2022/11/07 00:28:06;;;;;;;25.20;2.20;;;12.00;97.10;;;;;;5114353;27;20444;-73
2022/11/07 00:30:32;;;;;;;19.88;2.25;;;12.10;96.30;;;;;;5117072;27;20033;-72
2022/11/07 00:32:57;;;;;;;30.55;2.60;;;12.20;95.50;;;;;;5116922;28;20028;-73
2022/11/07 00:35:23;;;;;;;23.38;2.65;;;12.30;95.30;;;;;;5116447;28;20115;-73
2022/11/07 00:37:49;;;;;;;17.05;2.00;;;12.30;95.00;;;;;;5099172;28;20119;-73
2022/11/07 00:40:14;;;;;;;21.92;2.45;;;12.20;95.30;;;;;;5118154;28;20039;-73
2022/11/07 00:42:40;;;;;;;18.70;2.50;;;12.30;95.30;;;;;;5115429;28;20027;-73
2022/11/07 00:45:06;;;;;;;15.07;2.58;;;12.30;94.50;;;;;;5116067;28;20285;-73
2022/11/07 00:47:32;;;;;;;20.67;2.08;;;12.30;94.70;;;;;;5118538;28;20023;-72
2022/11/07 00:49:57;;;;;;;14.98;2.03;;;12.30;94.50;;;;;;5116691;28;20592;-73
2022/11/07 00:52:23;;;;;;;17.70;1.95;;;12.30;94.90;;;;;;5116952;28;20023;-74
2022/11/07 00:54:49;;;;;;;18.33;2.20;;;12.30;94.70;;;;;;5116928;28;20026;-72
2022/11/07 00:57:14;;;;;;;15.13;1.73;;;12.30;95.10;;;;;;5116799;28;20076;-73
2022/11/07 00:59:40;;;;;;;21.85;2.28;;;12.30;95.00;;;;;;5111885;28;20039;-73
2022/11/07 01:02:05;;;;;;;22.70;1.90;;;12.40;94.80;;;;;;5115941;28;20110;-73
2022/11/07 01:07:15;;;;;;;18.88;2.33;;;12.60;94.50;;;;;;5120042;27;20106;-73
2022/11/07 01:09:41;;;;;;;18.65;2.35;;;12.60;94.90;;;;;;5120547;27;20461;-73
2022/11/07 01:12:07;;;;;;;22.75;2.47;;;12.70;94.90;;;;;;5086686;28;20023;-73
2022/11/07 01:14:32;;;;;;;18.90;2.22;;;12.60;95.30;;;;;;5116433;27;20543;-74
2022/11/07 01:16:58;;;;;;;23.42;2.05;;;12.60;95.60;;;;;;5122284;27;20110;-73
2022/11/07 01:19:23;;;;;;;24.17;2.90;;;12.60;95.90;;;;;;5103319;27;20035;-73
2022/11/07 01:21:49;;;;;;;34.97;3.00;;;12.60;96.20;;;;;;5122116;27;20049;-74
2022/11/07 01:24:16;;;;;;;19.33;2.17;;;12.60;96.20;;;;;;5095134;28;20027;-73
2022/11/07 01:26:46;;;;;;;21.48;2.53;;;12.60;96.50;;;;;;5106327;27;20249;-73
2022/11/07 01:29:12;;;;;;;19.52;2.63;;;12.60;96.60;;;;;;5120150;27;20183;-73
2022/11/07 01:31:38;;;;;;;23.60;2.67;;;12.50;96.60;;;;;;5120703;27;20448;-73
2022/11/07 01:34:04;;;;;;;23.92;3.03;;;12.50;96.30;;;;;;5116017;27;20063;-73
2022/11/07 01:36:30;;;;;;;29.40;4.22;;;12.50;96.20;;;;;;5101611;27;20182;-73
2022/11/07 01:38:56;;;;;;;20.00;2.92;;;12.50;95.80;;;;;;5120077;27;20398;-73
2022/11/07 01:41:28;;;;;;;25.27;3.13;;;12.50;95.70;;;;;;5101304;27;20129;-73
2022/11/07 01:43:58;;;;;;;22.55;2.90;;;12.50;95.90;;;;;;5107941;27;20047;-73
2022/11/07 01:46:34;;;;;;;28.20;3.25;;;12.50;95.90;;;;;;5113546;27;20037;-74
2022/11/07 01:49:09;;;;;;;29.90;2.88;;;12.50;96.00;;;;;;5120781;27;20574;-73
2022/11/07 01:51:42;;;;;;;28.50;2.83;;;12.40;96.30;;;;;;5118931;27;20128;-73
2022/11/07 01:54:08;;;;;;;28.15;2.75;;;12.40;96.30;;;;;;5120222;27;20023;-73
2022/11/07 01:56:38;;;;;;;31.98;2.47;;;12.40;96.30;;;;;;5118004;27;20043;-73
2022/11/07 01:59:05;;;;;;;28.30;3.50;;;12.40;96.40;;;;;;5119722;27;20551;-73
2022/11/07 02:01:31;;;;;;;27.20;2.60;;;12.40;96.30;;;;;;5120552;27;20308;-73
2022/11/07 02:03:58;;;;;;;27.00;2.92;;;12.30;96.40;;;;;;5102081;27;20190;-73
2022/11/07 02:06:30;;;;;;;19.85;2.30;;;12.30;95.90;;;;;;5120283;27;20027;-73
2022/11/07 02:08:56;;;;;;;20.90;2.42;;;12.20;96.10;;;;;;5119022;27;20035;-73
2022/11/07 02:11:22;;;;;;;21.15;2.38;;;12.10;96.10;;;;;;5117184;27;20480;-73
2022/11/07 02:13:48;;;;;;;31.80;3.20;;;12.00;95.90;;;;;;5118048;27;20377;-73
2022/11/07 02:16:14;;;;;;;25.52;2.92;;;12.00;95.90;;;;;;5118687;27;20033;-73
2022/11/07 02:18:42;;;;;;;21.92;2.97;;;12.20;96.20;;;;;;5094715;28;20498;-73
2022/11/07 02:21:27;;;;;;;17.10;2.35;;;12.30;96.60;;;;;;5102488;27;20080;-73
2022/11/07 02:24:16;;;;;;;33.70;2.72;;;12.30;97.10;;;;;;5119766;27;20187;-73
2022/11/07 02:26:42;;;;;;;27.85;3.35;;;12.40;97.30;;;;;;5109367;27;20454;-73
2022/11/07 02:29:10;;;;;;;23.40;3.22;;;12.50;97.20;;;;;;5118420;27;20023;-73
2022/11/07 02:31:35;;;;;;;28.63;3.80;;;12.40;97.30;;;;;;5110348;27;20027;-73
2022/11/07 02:34:01;;;;;;;19.58;2.63;;;12.40;97.40;;;;;;5112300;27;20045;-72
2022/11/07 02:36:27;;;;;;;22.58;3.05;;;12.40;97.50;;;;;;5116317;27;20038;-73
2022/11/07 02:38:57;;;;;;;23.10;3.25;;;12.30;97.50;;;;;;5094323;28;20118;-73
2022/11/07 02:41:27;;;;;;;22.00;2.95;;;12.30;97.30;;;;;;5116897;27;20065;-73
2022/11/07 02:44:01;;;;;;;21.35;2.95;;;12.30;97.60;;;;;;5118015;27;20132;-73
2022/11/07 02:46:29;;;;;;;26.27;2.90;;;12.20;97.70;;;;;;5117447;27;20019;-73
2022/11/07 02:48:57;;;;;;;30.52;3.40;;;12.20;97.70;;;;;;5113042;27;20047;-73
2022/11/07 02:51:23;;;;;;;40.63;3.67;;;12.20;97.70;;;;;;5108116;27;20095;-73
2022/11/07 02:53:49;;;;;;;36.78;3.97;;;12.20;97.60;;;;;;5098669;27;20038;-72
2022/11/07 02:56:15;;;;;;;47.83;4.32;;;12.20;97.20;;;;;;5097315;27;20126;-73
2022/11/07 02:58:40;;;;;;;26.08;3.33;;;12.20;96.90;;;;;;5117049;27;20561;-73
2022/11/07 03:01:06;;;;;;;26.85;2.90;;;12.20;97.00;;;;;;5106178;27;20118;-73
2022/11/07 03:03:34;;;;;;;26.80;3.17;;;12.20;96.70;;;;;;5100003;27;20030;-74
2022/11/07 03:06:00;;;;;;;35.05;3.70;;;12.20;96.50;;;;;;5119545;27;20023;-73
2022/11/07 03:08:26;;;;;;;25.77;3.15;;;12.20;96.60;;;;;;5118165;27;20023;-73
2022/11/07 03:10:51;;;;;;;29.10;3.22;;;12.20;96.40;;;;;;5113085;27;20111;-73
2022/11/07 03:13:17;;;;;;;27.85;3.42;;;12.20;96.10;;;;;;5110049;27;20106;-73
2022/11/07 03:15:42;;;;;;;31.00;3.30;;;12.20;96.30;;;;;;5110698;27;20114;-73
2022/11/07 03:18:08;;;;;;;22.15;3.13;;;12.20;96.40;;;;;;5097542;28;20023;-74
2022/11/07 03:20:34;;;;;;;23.08;3.17;;;12.20;96.00;;;;;;5116337;27;20126;-73
2022/11/07 03:22:59;;;;;;;26.02;3.53;;;12.20;96.00;;;;;;5117517;27;20031;-73
2022/11/07 03:25:25;;;;;;;27.23;2.65;;;12.20;95.80;;;;;;5097555;27;20222;-73
2022/11/07 03:27:50;;;;;;;28.13;3.40;;;12.20;96.10;;;;;;5118193;27;20019;-73
2022/11/07 03:30:16;;;;;;;21.77;2.95;;;12.20;95.50;;;;;;5117167;27;20031;-73
2022/11/07 03:32:42;;;;;;;27.02;4.57;;;12.20;95.50;;;;;;5117496;27;20371;-72
2022/11/07 03:35:08;;;;;;;21.85;2.78;;;12.20;95.20;;;;;;5099451;27;20037;-73
2022/11/07 03:37:34;;;;;;;28.15;3.00;;;12.20;95.50;;;;;;5118189;27;20435;-73
2022/11/07 03:39:59;;;;;;;26.33;2.92;;;12.20;95.60;;;;;;5114634;27;20461;-73
2022/11/07 03:42:25;;;;;;;22.38;2.88;;;12.20;95.80;;;;;;5100818;27;20123;-73
2022/11/07 03:44:50;;;;;;;26.75;3.15;;;12.20;95.90;;;;;;5115773;27;20069;-73
2022/11/07 03:47:16;;;;;;;25.40;3.40;;;12.30;95.90;;;;;;5120395;27;20063;-73
2022/11/07 03:49:42;;;;;;;30.73;3.55;;;12.30;96.00;;;;;;5109268;27;20072;-73
2022/11/07 03:52:07;;;;;;;36.03;4.07;;;12.30;96.20;;;;;;5115518;27;20553;-73
2022/11/07 03:54:33;;;;;;;31.23;3.13;;;12.40;96.40;;;;;;5117588;27;20023;-73
2022/11/07 03:56:59;;;;;;;25.80;3.63;;;12.50;96.30;;;;;;5119690;27;20481;-73
2022/11/07 03:59:24;;;;;;;32.58;3.67;;;12.40;96.70;;;;;;5098990;27;20562;-73
2022/11/07 04:01:50;;;;;;;31.80;3.92;;;12.50;96.40;;;;;;5108795;27;20122;-73
2022/11/07 04:04:15;;;;;;;34.05;3.75;;;12.60;96.20;;;;;;5100778;27;20422;-73
2022/11/07 04:06:41;;;;;;;32.25;3.55;;;12.70;96.10;;;;;;5118782;27;20027;-74
2022/11/07 04:09:07;;;;;;;31.77;3.30;;;12.70;96.10;;;;;;5116007;27;20723;-73
2022/11/07 04:17:19;;;;;;;36.53;4.63;;;12.90;96.30;;;;;;5118262;27;20046;-73
2022/11/07 04:19:55;;;;;;;33.25;3.45;;;12.80;96.50;;;;;;5119373;27;20473;-73
2022/11/07 04:22:25;;;;;;;35.20;3.88;;;12.70;96.50;;;;;;5117484;27;20439;-73
2022/11/07 04:24:51;;;;;;;30.10;4.05;;;12.80;96.70;;;;;;5103677;27;20039;-73
2022/11/07 04:30:22;;;;;;;24.27;3.33;;;12.80;96.50;;;;;;5116360;27;20088;-73
2022/11/07 04:32:59;;;;;;;31.38;3.33;;;12.80;96.60;;;;;;5115429;27;20359;-73
2022/11/07 04:35:27;;;;;;;37.83;4.18;;;12.80;96.40;;;;;;5119503;28;20027;-73
2022/11/07 04:37:53;;;;;;;33.85;3.28;;;12.90;96.50;;;;;;5117523;28;20156;-75
2022/11/07 04:40:19;;;;;;;32.35;3.42;;;12.80;96.60;;;;;;5117554;27;20464;-73
2022/11/07 04:42:46;;;;;;;21.63;2.38;;;12.90;96.70;;;;;;5122975;27;20026;-73
2022/11/07 04:45:12;;;;;;;33.60;3.22;;;12.90;96.70;;;;;;5122830;27;20046;-73
2022/11/07 04:47:39;;;;;;;29.25;2.78;;;12.80;96.80;;;;;;5121226;27;20677;-73
2022/11/07 04:50:06;;;;;;;25.65;3.20;;;12.70;97.10;;;;;;5116796;27;20114;-73
2022/11/07 04:52:32;;;;;;;29.85;3.08;;;12.60;97.30;;;;;;5121196;27;20030;-73
2022/11/07 04:54:57;;;;;;;24.85;3.15;;;12.60;97.60;;;;;;5101024;27;20039;-73
2022/11/07 04:57:23;;;;;;;21.05;2.60;;;12.60;97.70;;;;;;5122839;27;20415;-73
2022/11/07 04:59:49;;;;;;;27.27;3.28;;;12.60;97.80;;;;;;5120896;27;21013;-73
2022/11/07 05:02:14;;;;;;;29.50;2.80;;;12.60;97.80;;;;;;5121811;27;20035;-73
2022/11/07 05:04:40;;;;;;;28.90;3.80;;;12.60;97.70;;;;;;5121898;27;20086;-72
2022/11/07 05:07:07;;;;;;;25.00;3.47;;;12.60;97.70;;;;;;5123544;27;20623;-73
2022/11/07 05:09:33;;;;;;;38.78;3.10;;;12.60;97.90;;;;;;5120772;27;20642;-72
2022/11/07 05:11:59;;;;;;;35.22;3.50;;;12.70;97.90;;;;;;5120960;27;20031;-74
2022/11/07 05:14:25;;;;;;;31.67;3.90;;;12.70;97.90;;;;;;5115415;27;20027;-73
2022/11/07 05:16:52;;;;;;;30.20;2.78;;;12.80;97.70;;;;;;5108151;27;20043;-73
2022/11/07 05:19:20;;;;;;;24.55;2.72;;;12.90;97.70;;;;;;5101514;27;20048;-73
2022/11/07 05:21:46;;;;;;;32.58;3.55;;;12.90;97.60;;;;;;5117558;27;20054;-73
2022/11/07 05:24:12;;;;;;;33.38;3.30;;;13.00;97.30;;;;;;5122245;27;20497;-73
2022/11/07 05:26:38;;;;;;;27.27;3.03;;;13.00;97.30;;;;;;5115007;27;20032;-73
2022/11/07 05:29:05;;;;;;;41.05;4.43;;;13.00;97.20;;;;;;5105936;27;20034;-73
2022/11/07 05:31:30;;;;;;;32.03;3.22;;;13.00;97.20;;;;;;5117533;27;20521;-73
2022/11/07 05:33:56;;;;;;;27.67;3.80;;;13.10;97.20;;;;;;5096679;27;20494;-73
2022/11/07 05:36:23;;;;;;;32.80;3.65;;;13.10;97.50;;;;;;5117056;27;20102;-72
2022/11/07 05:38:51;;;;;;;34.88;3.35;;;13.10;97.70;;;;;;5096651;27;20169;-72
2022/11/07 05:41:19;;;;;;;32.63;3.97;;;13.10;98.00;;;;;;5121951;27;20201;-73
2022/11/07 05:43:46;;;;;;;23.98;3.30;;;13.10;98.00;;;;;;5103337;27;20043;-73
2022/11/07 05:46:12;;;;;;;37.25;3.58;;;13.10;98.00;;;;;;5102101;27;20516;-73
2022/11/07 05:48:38;;;;;;;25.58;2.90;;;13.10;97.90;;;;;;5119277;27;20031;-73
2022/11/07 05:51:07;;;;;;;26.65;3.03;;;13.10;98.00;;;;;;5102607;27;20123;-72
2022/11/07 05:53:33;;;;;;;34.15;3.95;;;13.10;98.10;;;;;;5092899;27;20032;-72
2022/11/07 05:55:59;;;;;;;40.75;4.38;;;13.10;98.20;;;;;;5121523;27;20111;-72
2022/11/07 05:58:24;;;;;;;35.83;3.22;;;13.10;98.30;;;;;;5121190;27;20137;-72
2022/11/07 06:00:50;;;;;;;34.10;4.57;;;13.10;98.20;;;;;;5098915;27;20043;-72
2022/11/07 06:03:18;;;;;;;38.60;4.30;;;13.10;98.00;;;;;;5118203;27;20294;-73
2022/11/07 06:05:44;;;;;;;31.23;4.28;;;13.10;97.80;;;;;;5101018;27;20488;-72
2022/11/07 06:08:11;;;;;;;37.97;4.00;;;13.20;97.90;;;;;;5115619;27;20164;-72
2022/11/07 06:10:39;;;;;;;38.33;3.47;;;13.20;97.60;;;;;;5117884;27;20048;-72
2022/11/07 06:13:09;;;;;;;28.38;3.90;;;13.20;97.60;;;;;;5119320;27;20439;-73
2022/11/07 06:15:37;;;;;;;23.90;3.28;;;13.20;97.50;;;;;;5091053;27;20027;-72
2022/11/07 06:18:05;;;;;;;26.95;2.70;;;13.10;97.90;;;;;;5118872;27;20023;-72
2022/11/07 06:20:31;;;;;;;24.38;2.58;;;13.10;97.70;;;;;;5099244;27;20465;-73
2022/11/07 06:23:01;;;;;;;13.05;2.33;;;13.00;97.70;;;;;;5119476;27;20031;-72
2022/11/07 06:25:27;;;;;;;17.58;2.45;;;13.00;97.70;;;;;;5117799;27;20046;-73
2022/11/07 06:28:01;;;;;;;17.80;2.58;;;13.00;97.70;;;;;;5099008;27;20031;-73
2022/11/07 06:30:27;;;;;;;26.13;2.58;;;12.90;97.80;;;;;;5116424;27;20027;-73
2022/11/07 06:32:53;;;;;;;22.40;2.67;;;12.80;97.90;;;;;;5117357;27;20205;-72
2022/11/07 06:35:19;;;;;;;19.77;2.58;;;12.80;97.90;;;;;;5116807;27;20031;-72
2022/11/07 06:37:44;;;;;;;23.92;2.65;;;12.80;98.20;;;;;;5101837;27;20058;-72
2022/11/07 06:40:10;;;;;;;30.55;3.10;;;12.80;98.40;;;;;;5101507;27;20146;-72
2022/11/07 06:42:36;;;;;;;22.77;2.85;;;12.70;98.50;;;;;;5118117;27;20034;-73
2022/11/07 06:45:03;;;;;;;26.27;2.90;;;12.70;98.70;;;;;;5107771;27;20046;-73
2022/11/07 06:47:29;;;;;;;30.05;3.17;;;12.80;98.80;;;;;;5100836;27;20076;-73
2022/11/07 06:49:55;;;;;;;32.70;3.20;;;12.80;98.90;;;;;;5120920;27;20115;-72
2022/11/07 06:52:20;;;;;;;32.67;3.60;;;12.90;98.90;;;;;;5119033;27;20054;-72
2022/11/07 06:54:46;;;;;;;27.30;2.92;;;12.90;98.90;;;;;;5118739;27;20027;-73
2022/11/07 06:57:11;;;;;;;34.22;2.90;;;13.00;98.90;;;;;;5120191;27;20039;-72
2022/11/07 06:59:37;;;;;;;28.65;3.13;;;13.00;99.00;;;;;;5117543;27;20279;-72
2022/11/07 07:02:03;;;;;;;30.08;2.78;;;12.90;98.90;;;;;;5117302;27;20430;-73
2022/11/07 07:04:28;;;;;;;31.70;3.00;;;12.90;98.70;;;;;;5107908;27;20571;-73
2022/11/07 07:06:54;;;;;;;34.80;2.92;;;13.00;98.60;;;;;;5115915;27;20045;-73
2022/11/07 07:09:19;;;;;;;34.28;2.78;;;13.00;98.60;;;;;;5120440;27;20543;-73
2022/11/07 07:11:45;;;;;;;28.42;3.28;;;13.00;98.60;;;;;;5119868;27;20474;-72
2022/11/07 07:14:11;;;;;;;31.20;3.22;;;13.00;98.60;;;;;;5118626;27;20030;-72
2022/11/07 07:16:37;;;;;;;36.20;3.08;;;13.00;98.50;;;;;;5104939;27;20825;-73
2022/11/07 07:19:03;;;;;;;25.85;3.15;;;13.00;98.60;;;;;;5099575;27;20241;-73
2022/11/07 07:21:28;;;;;;;25.30;2.95;;;13.10;98.80;;;;;;5115429;27;20062;-73
2022/11/07 07:23:54;;;;;;;26.52;3.58;;;13.10;98.80;;;;;;5110937;27;20048;-73
2022/11/07 07:26:20;;;;;;;34.90;3.05;;;13.10;98.80;;;;;;5092361;27;20481;-73
2022/11/07 07:28:47;;;;;;;32.22;3.13;;;13.10;99.00;;;;;;5087634;27;20362;-72
2022/11/07 07:31:13;;;;;;;28.70;3.58;;;13.20;98.80;;;;;;5113326;27;20575;-73
2022/11/07 07:33:40;;;;;;;33.13;3.33;;;13.30;98.80;;;;;;5110327;27;20043;-73
2022/11/07 07:36:06;;;;;;;37.38;3.22;;;13.30;98.80;;;;;;5109194;27;20024;-73
2022/11/07 07:38:32;;;;;;;32.63;3.20;;;13.30;98.70;;;;;;5112635;27;20694;-73
2022/11/07 07:40:58;;;;;;;30.10;3.47;;;13.30;98.20;;;;;;5091065;28;20451;-73
2022/11/07 07:43:26;;;;;;;25.33;2.33;;;13.30;98.30;;;;;;5103724;27;20068;-72
2022/11/07 07:45:51;;;;;;;20.25;2.45;;;13.30;97.40;;;;;;5106657;27;20034;-73
2022/11/07 07:48:17;;;;;;;17.95;2.45;;;13.30;97.60;;;;;;5109447;27;20432;-72
2022/11/07 07:50:43;;;;;;;13.35;1.90;;;13.20;97.80;;;;;;5109255;27;20031;-72
2022/11/07 07:53:08;;;;;;;13.32;1.88;;;13.10;97.80;;;;;;5112857;27;20535;-72
2022/11/07 07:55:34;;;;;;;18.73;1.98;;;13.20;97.90;;;;;;5115642;27;20504;-72
2022/11/07 07:58:00;;;;;;;13.90;2.22;;;13.10;98.10;;;;;;5116090;27;20039;-73
2022/11/07 08:00:25;;;;;;;19.77;2.65;;;13.10;98.20;;;;;;5112391;27;20396;-72
2022/11/07 08:02:59;;;;;;;26.65;2.58;;;13.30;98.30;;;;;;5114467;27;20044;-73
2022/11/07 08:05:25;;;;;;;22.63;2.80;;;13.30;98.50;;;;;;5107672;27;20435;-73
2022/11/07 08:07:51;;;;;;;28.55;3.03;;;13.40;98.40;;;;;;5113777;27;20031;-72
2022/11/07 08:10:18;;;;;;;22.85;2.95;;;13.50;98.40;;;;;;5113393;27;20062;-72
2022/11/07 08:12:45;;;;;;;21.42;2.67;;;13.50;98.10;;;;;;5111131;27;20033;-72
2022/11/07 08:15:12;;;;;;;18.90;2.58;;;13.50;97.80;;;;;;5108058;27;20033;-72
2022/11/07 08:17:38;;;;;;;16.42;2.22;;;13.50;98.10;;;;;;5107002;27;20019;-73
2022/11/07 08:20:04;;;;;;;17.05;2.38;;;13.60;98.00;;;;;;5089969;28;20119;-73
2022/11/07 08:22:30;;;;;;;14.05;1.95;;;13.50;97.90;;;;;;5109293;27;20027;-73
2022/11/07 08:24:55;;;;;;;22.60;2.05;;;13.50;98.00;;;;;;5107671;27;20511;-72
2022/11/07 08:27:21;;;;;;;15.77;2.00;;;13.50;98.10;;;;;;5112172;27;20039;-72
2022/11/07 08:29:47;;;;;;;13.40;2.17;;;13.50;98.30;;;;;;5111149;27;20023;-72
2022/11/07 08:32:12;;;;;;;16.35;1.67;;;13.50;98.30;;;;;;5117921;27;20020;-72
2022/11/07 08:34:38;;;;;;;12.18;1.67;;;13.50;98.60;;;;;;5112449;28;20035;-71
2022/11/07 08:37:03;;;;;;;9.18;1.45;;;13.50;98.60;;;;;;5105847;28;20031;-72
2022/11/07 08:39:29;;;;;;;23.23;2.78;;;13.60;98.70;;;;;;5112290;28;20064;-72
2022/11/07 08:41:54;;;;;;;17.42;2.17;;;13.60;98.00;;;;;;5106389;28;20130;-72
2022/11/07 08:44:20;;;;;;;33.00;3.25;;;13.80;98.10;;;;;;5108744;28;20040;-72
2022/11/07 08:46:46;;;;;;;22.48;2.65;;;13.80;98.10;;;;;;5107691;28;20035;-73
2022/11/07 08:49:11;;;;;;;28.45;3.55;;;13.90;97.90;;;;;;5107992;28;20038;-75
2022/11/07 08:51:37;;;;;;;34.95;3.70;;;13.90;97.50;;;;;;5114173;28;20057;-71
2022/11/07 08:54:03;;;;;;;33.35;3.90;;;14.00;97.40;;;;;;5096125;28;20031;-75
2022/11/07 08:56:29;;;;;;;28.05;3.53;;;13.90;97.60;;;;;;5116377;28;20023;-73
2022/11/07 08:58:55;;;;;;;28.50;3.70;;;13.90;97.30;;;;;;5116689;28;20114;-75
2022/11/07 09:01:20;;;;;;;27.88;3.63;;;14.00;97.30;;;;;;5115513;28;20565;-73
2022/11/07 09:03:46;;;;;;;21.98;2.60;;;14.00;97.60;;;;;;5111873;28;20029;-73
2022/11/07 09:06:12;;;;;;;23.42;2.60;;;14.00;97.60;;;;;;5116822;28;20110;-73
2022/11/07 09:08:39;;;;;;;26.50;3.50;;;14.10;97.90;;;;;;5114886;28;20038;-73
2022/11/07 09:11:05;;;;;;;30.63;2.97;;;14.10;97.30;;;;;;5096627;28;20081;-73
2022/11/07 09:13:32;;;;;;;20.23;2.72;;;14.20;97.30;;;;;;5114379;28;20339;-74
2022/11/07 09:15:59;;;;;;;26.83;2.33;;;14.20;97.20;;;;;;5105134;28;20096;-74
2022/11/07 09:18:26;;;;;;;25.73;3.30;;;14.20;97.20;;;;;;5092310;28;20039;-73
2022/11/07 09:20:52;;;;;;;29.60;3.50;;;14.20;97.30;;;;;;5094147;28;20485;-74
2022/11/07 09:23:17;;;;;;;24.58;2.78;;;14.20;97.10;;;;;;5118104;28;20019;-73
2022/11/07 09:25:43;;;;;;;27.73;2.72;;;14.20;97.20;;;;;;5109775;27;20109;-73
2022/11/07 09:28:09;;;;;;;24.77;3.22;;;14.30;96.70;;;;;;5118638;27;20031;-73
2022/11/07 09:30:35;;;;;;;22.92;2.50;;;14.30;96.50;;;;;;5109328;27;20023;-72
2022/11/07 09:33:00;;;;;;;23.90;3.20;;;14.20;96.80;;;;;;5112655;27;20023;-73
2022/11/07 09:35:27;;;;;;;22.65;2.95;;;14.30;96.00;;;;;;5103731;27;20121;-73
2022/11/07 09:37:52;;;;;;;19.52;2.75;;;14.30;96.60;;;;;;5119274;27;20055;-73
2022/11/07 09:40:58;;;;;;;24.20;2.42;;;14.30;96.70;;;;;;5100998;27;20217;-73
2022/11/07 09:43:56;;;;;;;18.33;2.08;;;14.30;96.70;;;;;;5101068;27;20176;-73
2022/11/07 09:46:48;;;;;;;23.23;2.40;;;14.30;96.40;;;;;;5113667;27;20482;-74
2022/11/07 09:49:42;;;;;;;19.35;2.30;;;14.30;96.40;;;;;;5114223;27;20383;-73
2022/11/07 09:52:39;;;;;;;30.30;3.08;;;14.40;96.20;;;;;;5110662;27;20474;-72
2022/11/07 09:55:11;;;;;;;22.63;2.17;;;14.50;96.10;;;;;;5114092;27;20124;-74
2022/11/07 09:57:37;;;;;;;19.23;2.90;;;14.50;96.50;;;;;;5115232;27;20482;-73
2022/11/07 10:00:14;;;;;;;26.75;3.13;;;14.60;96.80;;;;;;5116428;27;20054;-73
2022/11/07 10:03:03;;;;;;;19.40;2.80;;;14.60;96.10;;;;;;5116735;27;20027;-73
2022/11/07 10:05:52;;;;;;;25.08;3.45;;;14.60;96.40;;;;;;5114630;27;20110;-73
2022/11/07 10:08:33;;;;;;;24.33;2.90;;;14.60;96.70;;;;;;5121921;27;20035;-74
2022/11/07 10:11:02;;;;;;;30.30;3.45;;;14.70;96.10;;;;;;5118671;27;20027;-73
2022/11/07 10:14:04;;;;;;;26.92;2.63;;;14.70;96.10;;;;;;5116095;27;20087;-73
2022/11/07 10:17:00;;;;;;;32.63;3.28;;;14.70;96.80;;;;;;5074144;27;20035;-73
2022/11/07 10:19:48;;;;;;;35.78;3.72;;;14.60;96.30;;;;;;5082443;28;20042;-73
2022/11/07 10:22:50;;;;;;;27.13;3.40;;;14.70;96.80;;;;;;5121378;27;20023;-74
2022/11/07 10:25:34;;;;;;;30.02;3.08;;;14.60;96.50;;;;;;5117161;27;20042;-74
2022/11/07 10:28:05;;;;;;;36.65;3.58;;;14.60;96.90;;;;;;5117924;27;20027;-73
2022/11/07 10:30:31;;;;;;;;;;;14.60;96.60;;;;;;5100893;27;20055;-73
2022/11/07 10:33:24;;;;;;;27.75;3.75;;;14.70;96.50;;;;;;5109869;27;20300;-73
2022/11/07 10:35:55;;;;;;;33.95;4.03;;;14.80;96.60;;;;;;5096649;27;20063;-73
2022/11/07 10:38:29;;;;;;;33.60;3.70;;;14.90;96.00;;;;;;5110318;27;20026;-73
2022/11/07 10:40:55;;;;;;;30.20;3.58;;;14.90;95.10;;;;;;5118088;27;20035;-73
2022/11/07 10:43:43;;;;;;;21.42;3.13;;;14.90;95.90;;;;;;5108136;27;20031;-74
2022/11/07 10:46:24;;;;;;;31.48;4.20;;;14.90;95.30;;;;;;5116515;27;20448;-72
2022/11/07 10:48:51;;;;;;;28.23;3.50;;;15.00;95.30;;;;;;5115163;27;20540;-73
2022/11/07 10:51:17;;;;;;;31.40;4.72;;;15.10;95.20;;;;;;5115747;27;20031;-73
2022/11/07 10:53:44;;;;;;;35.28;4.10;;;15.10;94.70;;;;;;5120183;27;20122;-72
2022/11/07 10:56:11;;;;;;;34.10;3.80;;;15.20;95.30;;;;;;5119156;27;20049;-73
2022/11/07 10:58:43;;;;;;;29.15;3.75;;;15.40;94.50;;;;;;5117531;27;20398;-73
2022/11/07 11:01:10;;;;;;;32.65;3.75;;;15.40;94.20;;;;;;5109320;27;20536;-73
2022/11/07 11:03:46;;;;;;;34.40;3.83;;;15.60;93.90;;;;;;5115602;27;20028;-73
2022/11/07 11:06:23;;;;;;;27.88;4.07;;;15.70;92.60;;;;;;5114453;27;20054;-73
2022/11/07 11:08:51;;;;;;;28.73;3.75;;;15.80;92.40;;;;;;5115124;27;20023;-73
2022/11/07 11:11:31;;;;;;;33.35;3.92;;;15.80;92.70;;;;;;5118557;27;20061;-73
2022/11/07 11:14:07;;;;;;;26.88;3.45;;;15.60;92.30;;;;;;5115813;27;20042;-73
2022/11/07 11:16:36;;;;;;;25.27;3.50;;;15.40;93.20;;;;;;5118895;27;20118;-74
2022/11/07 11:19:03;;;;;;;23.85;3.45;;;15.20;94.60;;;;;;5114265;27;20019;-72
2022/11/07 11:21:48;;;;;;;29.77;3.33;;;15.00;94.70;;;;;;5114815;27;20046;-74
2022/11/07 11:24:31;;;;;;;36.40;3.58;;;14.80;94.70;;;;;;5095625;27;20023;-73
2022/11/07 11:27:06;;;;;;;27.48;3.40;;;14.70;95.60;;;;;;5113862;27;20058;-73
2022/11/07 11:29:39;;;;;;;30.02;3.85;;;14.60;95.80;;;;;;5118370;27;20449;-73
2022/11/07 11:32:10;;;;;;;32.88;3.28;;;14.70;96.50;;;;;;5115567;27;20035;-72
2022/11/07 11:34:41;;;;;;;37.42;3.97;;;14.70;95.80;;;;;;5120023;27;20015;-72
2022/11/07 11:37:15;;;;;;;32.55;3.67;;;14.60;96.40;;;;;;5100546;27;20088;-71
2022/11/07 11:39:58;;;;;;;34.50;3.10;;;14.50;96.20;;;;;;5117428;27;20338;-72
2022/11/07 11:42:39;;;;;;;22.42;3.10;;;14.50;96.80;;;;;;5118144;27;20029;-71
2022/11/07 11:45:47;;;;;;;28.77;3.08;;;14.50;97.30;;;;;;5106896;27;20031;-71
2022/11/07 11:48:50;;;;;;;21.17;2.65;;;14.50;97.00;;;;;;5115347;27;20026;-74
2022/11/07 11:51:22;;;;;;;22.63;2.53;;;14.60;96.40;;;;;;5111095;27;20030;-74
2022/11/07 11:53:47;;;;;;;;;;;14.60;96.40;;;;;;5119708;27;20119;-74
2022/11/07 11:56:22;;;;;;;30.35;3.55;;;14.60;96.40;;;;;;5106063;27;19911;-74
2022/11/07 11:58:53;;;;;;;32.70;3.65;;;14.70;96.50;;;;;;5114339;27;20042;-73
2022/11/07 12:01:25;;;;;;;;;;;14.70;96.70;;;;;;5110463;27;20031;-73
2022/11/07 12:04:19;;;;;;;25.52;3.00;;;14.70;96.90;;;;;;5117023;27;20243;-73
2022/11/07 12:06:45;;;;;;;27.50;4.13;;;14.60;96.90;;;;;;5116632;27;20030;-74
2022/11/07 12:09:23;;;;;;;32.85;3.60;;;14.60;97.20;;;;;;5104710;27;20394;-73
2022/11/07 12:11:58;;;;;;;30.58;4.22;;;14.60;96.60;;;;;;5117285;27;20421;-73
2022/11/07 12:14:41;;;;;;;32.35;3.38;;;14.60;97.20;;;;;;5115040;27;20362;-74
2022/11/07 12:17:27;;;;;;;28.42;3.30;;;14.50;97.00;;;;;;5112799;27;20107;-73
2022/11/07 12:20:14;;;;;;;35.15;4.00;;;14.50;97.20;;;;;;5115539;27;20113;-74
2022/11/07 12:22:57;;;;;;;32.22;4.18;;;14.50;96.80;;;;;;5109916;27;20098;-73
2022/11/07 12:25:48;;;;;;;26.05;3.92;;;14.60;96.60;;;;;;5109023;27;20027;-74
2022/11/07 12:28:45;;;;;;;33.03;5.43;;;14.60;96.30;;;;;;5088954;27;20027;-74
2022/11/07 12:31:40;;;;;;;35.85;4.15;;;14.70;96.60;;;;;;5107659;27;20156;-73
2022/11/07 12:34:31;;;;;;;25.45;3.33;;;14.80;96.20;;;;;;5075772;27;20585;-74
2022/11/07 12:37:18;;;;;;;28.38;4.13;;;14.90;95.70;;;;;;5109603;28;20076;-74
2022/11/07 12:39:52;;;;;;;23.50;3.42;;;15.20;95.20;;;;;;5096236;28;20188;-74
2022/11/07 12:42:37;;;;;;;31.25;4.03;;;15.40;94.80;;;;;;5114321;28;20282;-73
2022/11/07 12:45:14;;;;;;;28.45;3.28;;;15.60;93.70;;;;;;5109114;28;20047;-74
2022/11/07 12:47:58;;;;;;;28.65;3.45;;;15.70;94.20;;;;;;5116759;28;20054;-74
2022/11/07 12:50:44;;;;;;;28.75;3.65;;;15.80;93.10;;;;;;5117174;28;20030;-74
2022/11/07 12:53:18;;;;;;;28.35;3.70;;;15.70;93.20;;;;;;5097782;28;20070;-73
2022/11/07 12:55:51;;;;;;;28.52;3.55;;;15.70;93.20;;;;;;5115637;28;20715;-74
2022/11/07 12:58:24;;;;;;;31.95;3.95;;;15.80;93.10;;;;;;5098417;28;20057;-72
2022/11/07 13:00:50;;;;;;;25.63;3.40;;;15.70;92.20;;;;;;5114641;27;20047;-73
2022/11/07 13:03:37;;;;;;;28.33;3.78;;;15.80;93.40;;;;;;5121897;27;20358;-73